createdAt,value
2017-10-26T00:00:42.733Z,0.00
2017-10-26T00:01:42.709Z,0.00
2017-10-26T00:02:42.676Z,0.00
2017-10-26T00:03:42.684Z,0.00
2017-10-26T00:04:42.622Z,0.00
2017-10-26T00:05:42.615Z,0.00
2017-10-26T00:06:42.569Z,0.00
2017-10-26T00:07:42.543Z,0.00
2017-10-26T00:08:42.518Z,0.00
2017-10-26T00:09:42.505Z,0.00
2017-10-26T00:10:42.463Z,0.00
2017-10-26T00:11:42.440Z,0.00
2017-10-26T00:12:42.414Z,0.00
2017-10-26T00:13:42.386Z,0.00
2017-10-26T00:14:42.360Z,0.00
2017-10-26T00:15:42.336Z,0.00
2017-10-26T00:16:42.559Z,0.00
2017-10-26T00:17:42.282Z,0.00
2017-10-26T00:18:42.256Z,0.00
2017-10-26T00:19:42.231Z,0.00
2017-10-26T00:20:42.209Z,0.00
2017-10-26T00:21:42.177Z,0.00
2017-10-26T00:22:42.513Z,0.00
2017-10-26T00:23:42.126Z,0.00
2017-10-26T00:24:42.098Z,0.00
2017-10-26T00:25:42.071Z,0.00
2017-10-26T00:26:42.052Z,0.00
2017-10-26T00:27:42.019Z,0.00
2017-10-26T00:28:41.992Z,0.00
2017-10-26T00:29:41.969Z,0.00
2017-10-26T00:30:41.946Z,0.00
2017-10-26T00:31:41.912Z,0.00
2017-10-26T00:32:41.891Z,0.00
2017-10-26T00:33:41.866Z,0.00
2017-10-26T00:34:41.837Z,0.00
2017-10-26T00:35:41.813Z,0.00
2017-10-26T00:36:41.787Z,0.00
2017-10-26T00:37:41.765Z,0.00
2017-10-26T00:38:41.734Z,0.00
2017-10-26T00:39:41.721Z,0.00
2017-10-26T00:40:41.682Z,0.00
2017-10-26T00:41:41.652Z,0.00
2017-10-26T00:42:41.629Z,0.00
2017-10-26T00:43:41.603Z,0.00
2017-10-26T00:44:41.574Z,0.00
2017-10-26T00:45:41.552Z,0.00
2017-10-26T00:46:41.535Z,0.00
2017-10-26T00:47:41.501Z,0.00
2017-10-26T00:48:41.473Z,0.00
2017-10-26T00:49:41.446Z,0.00
2017-10-26T00:50:41.416Z,0.00
2017-10-26T00:51:41.391Z,0.00
2017-10-26T00:52:41.627Z,0.00
2017-10-26T00:53:41.347Z,0.00
2017-10-26T00:54:41.313Z,0.00
2017-10-26T00:55:41.290Z,0.00
2017-10-26T00:56:41.267Z,0.00
2017-10-26T00:57:41.242Z,0.00
2017-10-26T00:58:41.559Z,0.00
2017-10-26T00:59:41.184Z,0.00
2017-10-26T01:00:41.160Z,0.00
2017-10-26T01:01:41.132Z,0.00
2017-10-26T01:02:41.107Z,0.00
2017-10-26T01:03:41.081Z,0.00
2017-10-26T01:04:41.055Z,0.00
2017-10-26T01:05:41.030Z,0.00
2017-10-26T01:06:41.004Z,0.00
2017-10-26T01:07:40.982Z,0.00
2017-10-26T01:08:40.952Z,0.00
2017-10-26T01:09:40.925Z,0.00
2017-10-26T01:10:40.898Z,0.00
2017-10-26T01:11:40.886Z,0.00
2017-10-26T01:12:40.857Z,0.00
2017-10-26T01:13:40.825Z,0.00
2017-10-26T01:14:41.053Z,0.00
2017-10-26T01:15:40.774Z,0.00
2017-10-26T01:16:40.739Z,0.00
2017-10-26T01:17:40.715Z,0.00
2017-10-26T01:18:40.693Z,0.00
2017-10-26T01:19:40.669Z,0.00
2017-10-26T01:20:40.885Z,0.00
2017-10-26T01:21:40.617Z,0.00
2017-10-26T01:22:40.589Z,0.00
2017-10-26T01:23:40.563Z,0.00
2017-10-26T01:24:40.540Z,0.00
2017-10-26T01:25:40.511Z,0.00
2017-10-26T01:26:40.483Z,0.00
2017-10-26T01:27:40.461Z,0.00
2017-10-26T01:28:40.430Z,0.00
2017-10-26T01:29:40.410Z,0.00
2017-10-26T01:30:40.384Z,0.00
2017-10-26T01:31:40.351Z,0.00
2017-10-26T01:32:40.326Z,0.00
2017-10-26T01:33:40.303Z,0.00
2017-10-26T01:34:40.277Z,0.00
2017-10-26T01:35:40.253Z,0.00
2017-10-26T01:36:40.219Z,0.00
2017-10-26T01:37:40.200Z,0.00
2017-10-26T01:38:40.173Z,0.00
2017-10-26T01:39:40.146Z,0.00
2017-10-26T01:40:40.131Z,0.00
2017-10-26T01:41:40.097Z,0.00
2017-10-26T01:42:40.071Z,0.00
2017-10-26T01:43:40.050Z,0.00
2017-10-26T01:44:40.011Z,0.00
2017-10-26T01:45:39.993Z,0.00
2017-10-26T01:46:39.966Z,0.00
2017-10-26T01:47:39.939Z,0.00
2017-10-26T01:48:39.912Z,0.00
2017-10-26T01:49:39.884Z,0.00
2017-10-26T01:50:39.866Z,0.00
2017-10-26T01:51:39.837Z,0.00
2017-10-26T01:52:39.813Z,0.00
2017-10-26T01:53:39.783Z,0.00
2017-10-26T01:54:39.758Z,0.00
2017-10-26T01:55:39.733Z,0.00
2017-10-26T01:56:40.001Z,0.00
2017-10-26T01:57:39.683Z,0.00
2017-10-26T01:58:39.653Z,0.00
2017-10-26T01:59:39.624Z,0.00
2017-10-26T02:00:39.603Z,0.00
2017-10-26T02:01:39.575Z,0.00
2017-10-26T02:02:39.548Z,0.00
2017-10-26T02:03:39.520Z,0.00
2017-10-26T02:04:39.495Z,0.00
2017-10-26T02:05:39.477Z,0.00
2017-10-26T02:06:39.449Z,0.00
2017-10-26T02:07:39.425Z,0.00
2017-10-26T02:08:39.398Z,0.00
2017-10-26T02:09:39.370Z,0.00
2017-10-26T02:10:39.342Z,0.00
2017-10-26T02:11:39.321Z,0.00
2017-10-26T02:12:39.305Z,0.00
2017-10-26T02:13:39.265Z,0.00
2017-10-26T02:14:39.237Z,0.00
2017-10-26T02:15:39.221Z,0.00
2017-10-26T02:16:39.188Z,0.00
2017-10-26T02:17:39.165Z,0.00
2017-10-26T02:18:39.136Z,0.00
2017-10-26T02:19:39.106Z,0.00
2017-10-26T02:20:39.082Z,0.00
2017-10-26T02:21:39.063Z,0.00
2017-10-26T02:22:39.033Z,0.00
2017-10-26T02:23:39.006Z,0.00
2017-10-26T02:24:38.975Z,0.00
2017-10-26T02:25:38.962Z,0.00
2017-10-26T02:26:38.929Z,0.00
2017-10-26T02:27:38.899Z,0.00
2017-10-26T02:28:38.875Z,0.00
2017-10-26T02:29:38.845Z,0.00
2017-10-26T02:30:39.123Z,0.00
2017-10-26T02:31:38.796Z,0.00
2017-10-26T02:32:38.774Z,0.00
2017-10-26T02:33:38.747Z,0.00
2017-10-26T02:34:38.716Z,0.00
2017-10-26T02:35:38.702Z,0.00
2017-10-26T02:36:38.674Z,0.00
2017-10-26T02:37:38.645Z,0.00
2017-10-26T02:38:38.615Z,0.00
2017-10-26T02:39:38.587Z,0.00
2017-10-26T02:40:38.569Z,0.00
2017-10-26T02:41:38.536Z,0.00
2017-10-26T02:42:38.509Z,0.00
2017-10-26T02:43:38.490Z,0.00
2017-10-26T02:44:38.461Z,0.00
2017-10-26T02:45:38.431Z,0.00
2017-10-26T02:46:38.412Z,0.00
2017-10-26T02:47:38.384Z,0.00
2017-10-26T02:48:38.357Z,0.00
2017-10-26T02:49:38.336Z,0.00
2017-10-26T02:50:38.305Z,0.00
2017-10-26T02:51:38.276Z,0.00
2017-10-26T02:52:38.254Z,0.00
2017-10-26T02:53:38.231Z,0.00
2017-10-26T02:54:38.446Z,0.00
2017-10-26T02:55:38.173Z,0.00
2017-10-26T02:56:38.148Z,0.00
2017-10-26T02:57:38.120Z,0.00
2017-10-26T02:58:38.091Z,0.00
2017-10-26T02:59:38.069Z,0.00
2017-10-26T03:00:38.047Z,0.00
2017-10-26T03:01:38.020Z,0.00
2017-10-26T03:02:37.994Z,0.00
2017-10-26T03:03:37.962Z,0.00
2017-10-26T03:04:37.940Z,0.00
2017-10-26T03:05:37.916Z,0.00
2017-10-26T03:06:37.883Z,0.00
2017-10-26T03:07:37.865Z,0.00
2017-10-26T03:08:37.837Z,0.00
2017-10-26T03:09:37.806Z,0.00
2017-10-26T03:10:37.782Z,0.00
2017-10-26T03:11:37.758Z,0.00
2017-10-26T03:12:37.732Z,0.00
2017-10-26T03:13:37.703Z,0.00
2017-10-26T03:14:37.679Z,0.00
2017-10-26T03:15:37.651Z,0.00
2017-10-26T03:16:37.634Z,0.00
2017-10-26T03:17:37.598Z,0.00
2017-10-26T03:18:37.881Z,0.00
2017-10-26T03:19:37.546Z,0.00
2017-10-26T03:20:37.527Z,0.00
2017-10-26T03:21:37.498Z,0.00
2017-10-26T03:22:37.474Z,0.00
2017-10-26T03:23:37.451Z,0.00
2017-10-26T03:24:37.420Z,0.00
2017-10-26T03:25:37.391Z,0.00
2017-10-26T03:26:37.380Z,0.00
2017-10-26T03:27:37.342Z,0.00
2017-10-26T03:28:37.322Z,0.00
2017-10-26T03:29:37.297Z,0.00
2017-10-26T03:30:37.266Z,0.00
2017-10-26T03:31:37.239Z,0.00
2017-10-26T03:32:37.218Z,0.00
2017-10-26T03:33:37.186Z,0.00
2017-10-26T03:34:37.165Z,0.00
2017-10-26T03:35:37.137Z,0.00
2017-10-26T03:36:37.113Z,0.00
2017-10-26T03:37:37.086Z,0.00
2017-10-26T03:38:37.063Z,0.00
2017-10-26T03:39:37.034Z,0.00
2017-10-26T03:40:37.009Z,0.00
2017-10-26T03:41:36.981Z,0.00
2017-10-26T03:42:37.253Z,0.00
2017-10-26T03:43:36.928Z,0.00
2017-10-26T03:44:36.901Z,0.00
2017-10-26T03:45:36.883Z,0.00
2017-10-26T03:46:36.848Z,0.00
2017-10-26T03:47:36.824Z,0.00
2017-10-26T03:48:36.797Z,0.00
2017-10-26T03:49:36.779Z,0.00
2017-10-26T03:50:36.744Z,0.00
2017-10-26T03:51:36.717Z,0.00
2017-10-26T03:52:36.696Z,0.00
2017-10-26T03:53:36.675Z,0.00
2017-10-26T03:54:36.658Z,0.00
2017-10-26T03:55:36.627Z,0.00
2017-10-26T03:56:36.594Z,0.00
2017-10-26T03:57:36.567Z,0.00
2017-10-26T03:58:36.537Z,0.00
2017-10-26T03:59:36.519Z,0.00
2017-10-26T04:00:36.496Z,0.00
2017-10-26T04:01:36.465Z,0.00
2017-10-26T04:02:36.440Z,0.00
2017-10-26T04:03:36.416Z,0.00
2017-10-26T04:04:36.392Z,0.00
2017-10-26T04:05:36.373Z,0.00
2017-10-26T04:06:36.340Z,0.00
2017-10-26T04:07:36.313Z,0.00
2017-10-26T04:08:36.286Z,0.00
2017-10-26T04:09:36.256Z,0.00
2017-10-26T04:10:36.230Z,0.00
2017-10-26T04:11:36.509Z,0.00
2017-10-26T04:12:36.184Z,0.00
2017-10-26T04:13:36.152Z,0.00
2017-10-26T04:14:36.137Z,0.00
2017-10-26T04:15:36.104Z,0.00
2017-10-26T04:16:36.090Z,0.00
2017-10-26T04:17:36.352Z,0.00
2017-10-26T04:18:36.052Z,0.00
2017-10-26T04:19:36.000Z,0.00
2017-10-26T04:20:35.980Z,0.00
2017-10-26T04:21:35.962Z,0.00
2017-10-26T04:22:35.921Z,0.00
2017-10-26T04:23:35.906Z,0.00
2017-10-26T04:24:35.879Z,0.00
2017-10-26T04:25:35.840Z,0.00
2017-10-26T04:26:35.828Z,0.00
2017-10-26T04:27:35.792Z,0.00
2017-10-26T04:28:36.021Z,0.00
2017-10-26T04:29:35.740Z,0.00
2017-10-26T04:30:35.716Z,0.00
2017-10-26T04:31:35.688Z,0.00
2017-10-26T04:32:35.661Z,0.00
2017-10-26T04:33:35.636Z,0.00
2017-10-26T04:34:35.610Z,0.00
2017-10-26T04:35:35.584Z,0.00
2017-10-26T04:36:35.562Z,0.00
2017-10-26T04:37:35.541Z,0.00
2017-10-26T04:38:35.502Z,0.00
2017-10-26T04:39:35.493Z,0.00
2017-10-26T04:40:35.456Z,0.00
2017-10-26T04:41:35.428Z,0.00
2017-10-26T04:42:35.400Z,0.00
2017-10-26T04:43:35.391Z,0.00
2017-10-26T04:44:35.359Z,0.00
2017-10-26T04:45:35.329Z,0.00
2017-10-26T04:46:35.303Z,0.00
2017-10-26T04:47:35.279Z,0.00
2017-10-26T04:48:35.254Z,0.00
2017-10-26T04:49:35.222Z,0.00
2017-10-26T04:50:35.198Z,0.00
2017-10-26T04:51:35.174Z,0.00
2017-10-26T04:52:35.145Z,0.00
2017-10-26T04:53:35.120Z,0.00
2017-10-26T04:54:35.096Z,0.00
2017-10-26T04:55:35.070Z,0.00
2017-10-26T04:56:35.040Z,0.00
2017-10-26T04:57:35.022Z,0.00
2017-10-26T04:58:34.996Z,0.00
2017-10-26T04:59:34.962Z,0.00
2017-10-26T05:00:34.938Z,0.00
2017-10-26T05:01:34.916Z,0.00
2017-10-26T05:02:34.887Z,0.00
2017-10-26T05:03:34.862Z,0.00
2017-10-26T05:04:34.839Z,0.00
2017-10-26T05:05:34.807Z,0.00
2017-10-26T05:06:34.782Z,0.00
2017-10-26T05:07:34.753Z,0.00
2017-10-26T05:08:34.730Z,0.00
2017-10-26T05:09:35.011Z,0.00
2017-10-26T05:10:34.676Z,0.00
2017-10-26T05:11:34.649Z,0.00
2017-10-26T05:12:34.633Z,0.00
2017-10-26T05:13:34.600Z,0.00
2017-10-26T05:14:34.579Z,0.00
2017-10-26T05:15:34.550Z,0.00
2017-10-26T05:16:34.532Z,0.00
2017-10-26T05:17:34.503Z,0.00
2017-10-26T05:18:34.472Z,0.00
2017-10-26T05:19:34.452Z,0.00
2017-10-26T05:20:34.428Z,0.00
2017-10-26T05:21:34.644Z,0.00
2017-10-26T05:22:34.365Z,0.00
2017-10-26T05:23:34.342Z,0.00
2017-10-26T05:24:34.325Z,0.00
2017-10-26T05:25:34.293Z,0.00
2017-10-26T05:26:34.266Z,0.00
2017-10-26T05:27:34.242Z,0.00
2017-10-26T05:28:34.217Z,0.00
2017-10-26T05:29:34.198Z,0.00
2017-10-26T05:30:34.167Z,0.00
2017-10-26T05:31:34.141Z,0.00
2017-10-26T05:32:34.119Z,0.00
2017-10-26T05:33:34.095Z,0.00
2017-10-26T05:34:34.061Z,0.00
2017-10-26T05:35:34.034Z,0.00
2017-10-26T05:36:34.010Z,4.00
2017-10-26T05:37:33.986Z,4.00
2017-10-26T05:38:33.956Z,4.00
2017-10-26T05:39:33.933Z,4.00
2017-10-26T05:40:33.907Z,4.00
2017-10-26T05:41:33.875Z,4.00
2017-10-26T05:42:33.857Z,8.00
2017-10-26T05:43:33.831Z,4.00
2017-10-26T05:44:33.814Z,8.00
2017-10-26T05:45:33.777Z,8.00
2017-10-26T05:46:33.752Z,12.00
2017-10-26T05:47:33.730Z,16.00
2017-10-26T05:48:33.700Z,16.00
2017-10-26T05:49:33.670Z,16.00
2017-10-26T05:50:33.642Z,16.00
2017-10-26T05:51:33.639Z,20.00
2017-10-26T05:52:33.592Z,24.00
2017-10-26T05:53:33.576Z,24.00
2017-10-26T05:54:33.540Z,32.00
2017-10-26T05:55:33.515Z,36.00
2017-10-26T05:56:33.505Z,36.00
2017-10-26T05:57:33.468Z,40.00
2017-10-26T05:58:33.443Z,48.00
2017-10-26T05:59:33.412Z,52.00
2017-10-26T06:00:33.397Z,64.00
2017-10-26T06:01:33.372Z,72.00
2017-10-26T06:02:33.336Z,76.00
2017-10-26T06:03:33.315Z,84.00
2017-10-26T06:04:33.291Z,92.00
2017-10-26T06:05:33.258Z,108.00
2017-10-26T06:06:33.237Z,124.00
2017-10-26T06:07:33.209Z,136.00
2017-10-26T06:08:33.487Z,148.00
2017-10-26T06:09:33.167Z,156.00
2017-10-26T06:10:33.139Z,164.00
2017-10-26T06:11:33.112Z,172.00
2017-10-26T06:12:33.083Z,188.00
2017-10-26T06:13:33.061Z,204.00
2017-10-26T06:14:33.028Z,224.00
2017-10-26T06:15:33.008Z,244.00
2017-10-26T06:16:32.984Z,260.00
2017-10-26T06:17:32.950Z,276.00
2017-10-26T06:18:32.935Z,292.00
2017-10-26T06:19:32.902Z,312.00
2017-10-26T06:20:32.875Z,336.00
2017-10-26T06:21:32.846Z,364.00
2017-10-26T06:22:32.826Z,384.00
2017-10-26T06:23:32.801Z,404.00
2017-10-26T06:24:32.767Z,432.00
2017-10-26T06:25:32.741Z,464.00
2017-10-26T06:26:32.719Z,496.00
2017-10-26T06:27:32.696Z,528.00
2017-10-26T06:28:32.666Z,564.00
2017-10-26T06:29:32.648Z,620.00
2017-10-26T06:30:32.619Z,688.00
2017-10-26T06:31:32.590Z,760.00
2017-10-26T06:32:32.564Z,844.00
2017-10-26T06:33:32.540Z,944.00
2017-10-26T06:34:32.508Z,1036.00
2017-10-26T06:35:32.487Z,1104.00
2017-10-26T06:36:32.462Z,1156.00
2017-10-26T06:37:32.733Z,1204.00
2017-10-26T06:38:32.407Z,1240.00
2017-10-26T06:39:32.382Z,1280.00
2017-10-26T06:40:32.365Z,1344.00
2017-10-26T06:41:32.337Z,1416.00
2017-10-26T06:42:32.311Z,1436.00
2017-10-26T06:43:32.280Z,1384.00
2017-10-26T06:44:32.262Z,1344.00
2017-10-26T06:45:32.230Z,1372.00
2017-10-26T06:46:32.214Z,1480.00
2017-10-26T06:47:32.176Z,1648.00
2017-10-26T06:48:32.154Z,1752.00
2017-10-26T06:49:32.133Z,1736.00
2017-10-26T06:50:32.107Z,1752.00
2017-10-26T06:51:32.076Z,1868.00
2017-10-26T06:52:32.050Z,2100.00
2017-10-26T06:53:32.029Z,2276.00
2017-10-26T06:54:32.003Z,2368.00
2017-10-26T06:55:31.988Z,2388.00
2017-10-26T06:56:31.962Z,2392.00
2017-10-26T06:57:31.919Z,2548.00
2017-10-26T06:58:31.904Z,2684.00
2017-10-26T06:59:31.872Z,2780.00
2017-10-26T07:00:31.847Z,2864.00
2017-10-26T07:01:31.823Z,2972.00
2017-10-26T07:02:31.805Z,3060.00
2017-10-26T07:03:31.777Z,3136.00
2017-10-26T07:04:31.757Z,3244.00
2017-10-26T07:05:31.723Z,3208.00
2017-10-26T07:06:31.704Z,3124.00
2017-10-26T07:07:31.666Z,3032.00
2017-10-26T07:08:31.644Z,2716.00
2017-10-26T07:09:31.620Z,2516.00
2017-10-26T07:10:31.591Z,2448.00
2017-10-26T07:11:31.567Z,2544.00
2017-10-26T07:12:31.543Z,2720.00
2017-10-26T07:13:31.516Z,2776.00
2017-10-26T07:14:31.490Z,2736.00
2017-10-26T07:15:31.463Z,2772.00
2017-10-26T07:16:31.454Z,2772.00
2017-10-26T07:17:31.423Z,2896.00
2017-10-26T07:18:31.383Z,3024.00
2017-10-26T07:19:31.370Z,2908.00
2017-10-26T07:20:31.343Z,2920.00
2017-10-26T07:21:31.310Z,3208.00
2017-10-26T07:22:31.287Z,3416.00
2017-10-26T07:23:31.258Z,3756.00
2017-10-26T07:24:31.232Z,4320.00
2017-10-26T07:25:31.207Z,4856.00
2017-10-26T07:26:31.183Z,5544.00
2017-10-26T07:27:31.163Z,6180.00
2017-10-26T07:28:31.130Z,6232.00
2017-10-26T07:29:31.104Z,6188.00
2017-10-26T07:30:31.080Z,6292.00
2017-10-26T07:31:31.062Z,6476.00
2017-10-26T07:32:31.042Z,6820.00
2017-10-26T07:33:31.024Z,7152.00
2017-10-26T07:34:30.984Z,7376.00
2017-10-26T07:35:30.957Z,7408.00
2017-10-26T07:36:30.929Z,7228.00
2017-10-26T07:37:30.905Z,7160.00
2017-10-26T07:38:30.889Z,7280.00
2017-10-26T07:39:30.858Z,7176.00
2017-10-26T07:40:30.836Z,7100.00
2017-10-26T07:41:30.808Z,6828.00
2017-10-26T07:42:30.780Z,5944.00
2017-10-26T07:43:30.760Z,4764.00
2017-10-26T07:44:30.727Z,5108.00
2017-10-26T07:45:30.704Z,5132.00
2017-10-26T07:46:30.682Z,5632.00
2017-10-26T07:47:30.652Z,5848.00
2017-10-26T07:48:30.627Z,5092.00
2017-10-26T07:49:30.612Z,5088.00
2017-10-26T07:50:30.582Z,5144.00
2017-10-26T07:51:30.557Z,5288.00
2017-10-26T07:52:30.534Z,4872.00
2017-10-26T07:53:30.509Z,5276.00
2017-10-26T07:54:30.497Z,4992.00
2017-10-26T07:55:30.458Z,5496.00
2017-10-26T07:56:30.441Z,4624.00
2017-10-26T07:57:30.415Z,5560.00
2017-10-26T07:58:30.382Z,4724.00
2017-10-26T07:59:30.354Z,5512.00
2017-10-26T08:00:30.332Z,5412.00
2017-10-26T08:01:30.313Z,5484.00
2017-10-26T08:02:30.295Z,6164.00
2017-10-26T08:03:30.256Z,5860.00
2017-10-26T08:04:30.236Z,6760.00
2017-10-26T08:05:30.210Z,6464.00
2017-10-26T08:06:30.178Z,6892.00
2017-10-26T08:07:30.166Z,7220.00
2017-10-26T08:08:30.131Z,7120.00
2017-10-26T08:09:30.109Z,7408.00
2017-10-26T08:10:30.090Z,6620.00
2017-10-26T08:11:30.053Z,5616.00
2017-10-26T08:12:30.033Z,6636.00
2017-10-26T08:13:30.007Z,4516.00
2017-10-26T08:14:29.981Z,5052.00
2017-10-26T08:15:29.955Z,4280.00
2017-10-26T08:16:29.940Z,3344.00
2017-10-26T08:17:29.920Z,4940.00
2017-10-26T08:18:29.890Z,4052.00
2017-10-26T08:19:29.864Z,4668.00
2017-10-26T08:20:29.834Z,4276.00
2017-10-26T08:21:29.811Z,4268.00
2017-10-26T08:22:29.788Z,4520.00
2017-10-26T08:23:29.765Z,4644.00
2017-10-26T08:24:29.738Z,5260.00
2017-10-26T08:25:29.709Z,5788.00
2017-10-26T08:26:29.679Z,4984.00
2017-10-26T08:27:29.660Z,5504.00
2017-10-26T08:28:29.631Z,6224.00
2017-10-26T08:29:29.605Z,5924.00
2017-10-26T08:30:29.584Z,7080.00
2017-10-26T08:31:29.557Z,5884.00
2017-10-26T08:32:29.530Z,6028.00
2017-10-26T08:33:29.507Z,5616.00
2017-10-26T08:34:29.485Z,6072.00
2017-10-26T08:35:29.466Z,3816.00
2017-10-26T08:36:29.436Z,4956.00
2017-10-26T08:37:29.404Z,5448.00
2017-10-26T08:38:29.384Z,4024.00
2017-10-26T08:39:29.356Z,5140.00
2017-10-26T08:40:29.331Z,5144.00
2017-10-26T08:41:29.607Z,5456.00
2017-10-26T08:42:29.284Z,5224.00
2017-10-26T08:43:29.259Z,5640.00
2017-10-26T08:44:29.244Z,5220.00
2017-10-26T08:45:29.206Z,5456.00
2017-10-26T08:46:29.186Z,5348.00
2017-10-26T08:47:29.158Z,5348.00
2017-10-26T08:48:29.134Z,4772.00
2017-10-26T08:49:29.105Z,4788.00
2017-10-26T08:50:29.088Z,5384.00
2017-10-26T08:51:29.056Z,6384.00
2017-10-26T08:52:29.042Z,6104.00
2017-10-26T08:53:29.004Z,4988.00
2017-10-26T08:54:28.979Z,5028.00
2017-10-26T08:55:28.961Z,4128.00
2017-10-26T08:56:28.937Z,3968.00
2017-10-26T08:57:28.911Z,4372.00
2017-10-26T08:58:28.880Z,4716.00
2017-10-26T08:59:28.860Z,4524.00
2017-10-26T09:00:28.877Z,5912.00
2017-10-26T09:01:28.809Z,4272.00
2017-10-26T09:02:28.794Z,4696.00
2017-10-26T09:03:28.764Z,4188.00
2017-10-26T09:04:28.729Z,4532.00
2017-10-26T09:05:28.716Z,5952.00
2017-10-26T09:06:28.678Z,4800.00
2017-10-26T09:07:28.660Z,3984.00
2017-10-26T09:08:28.633Z,4368.00
2017-10-26T09:09:28.604Z,4196.00
2017-10-26T09:10:28.581Z,4284.00
2017-10-26T09:11:28.558Z,4164.00
2017-10-26T09:12:28.534Z,4380.00
2017-10-26T09:13:28.508Z,4716.00
2017-10-26T09:14:28.487Z,4512.00
2017-10-26T09:15:28.460Z,4300.00
2017-10-26T09:16:28.430Z,4304.00
2017-10-26T09:17:28.407Z,4692.00
2017-10-26T09:18:28.381Z,5116.00
2017-10-26T09:19:28.360Z,4348.00
2017-10-26T09:20:28.337Z,4444.00
2017-10-26T09:21:28.303Z,4212.00
2017-10-26T09:22:28.289Z,3664.00
2017-10-26T09:23:28.264Z,3848.00
2017-10-26T09:24:28.236Z,3780.00
2017-10-26T09:25:28.212Z,3156.00
2017-10-26T09:26:28.182Z,3108.00
2017-10-26T09:27:28.163Z,3096.00
2017-10-26T09:28:28.130Z,3220.00
2017-10-26T09:29:28.108Z,3104.00
2017-10-26T09:30:28.083Z,3080.00
2017-10-26T09:31:28.063Z,3196.00
2017-10-26T09:32:28.037Z,3660.00
2017-10-26T09:33:28.017Z,3580.00
2017-10-26T09:34:27.996Z,4212.00
2017-10-26T09:35:27.960Z,5000.00
2017-10-26T09:36:27.944Z,5680.00
2017-10-26T09:37:27.925Z,5160.00
2017-10-26T09:38:27.885Z,5124.00
2017-10-26T09:39:27.859Z,5716.00
2017-10-26T09:40:27.845Z,5556.00
2017-10-26T09:41:27.819Z,6552.00
2017-10-26T09:42:27.786Z,7320.00
2017-10-26T09:43:27.761Z,6724.00
2017-10-26T09:44:27.751Z,5760.00
2017-10-26T09:45:27.713Z,6188.00
2017-10-26T09:46:27.684Z,7468.00
2017-10-26T09:47:27.660Z,6632.00
2017-10-26T09:48:27.637Z,6160.00
2017-10-26T09:49:27.613Z,5468.00
2017-10-26T09:50:27.589Z,4820.00
2017-10-26T09:51:27.570Z,4684.00
2017-10-26T09:52:27.547Z,5596.00
2017-10-26T09:53:27.519Z,5636.00
2017-10-26T09:54:27.487Z,5284.00
2017-10-26T09:55:27.465Z,4232.00
2017-10-26T09:56:27.440Z,3872.00
2017-10-26T09:57:27.668Z,3824.00
2017-10-26T09:58:27.391Z,5100.00
2017-10-26T09:59:27.367Z,7628.00
2017-10-26T10:00:27.343Z,8564.00
2017-10-26T10:01:27.317Z,6488.00
2017-10-26T10:02:27.293Z,6768.00
2017-10-26T10:03:27.276Z,6492.00
2017-10-26T10:04:27.245Z,8416.00
2017-10-26T10:05:27.220Z,8172.00
2017-10-26T10:06:27.195Z,7992.00
2017-10-26T10:07:27.171Z,7120.00
2017-10-26T10:08:27.146Z,6144.00
2017-10-26T10:09:27.122Z,5508.00
2017-10-26T10:10:27.099Z,7228.00
2017-10-26T10:11:27.072Z,5884.00
2017-10-26T10:12:27.047Z,6516.00
2017-10-26T10:13:27.031Z,5808.00
2017-10-26T10:14:27.003Z,4232.00
2017-10-26T10:15:26.972Z,6500.00
2017-10-26T10:16:26.955Z,6496.00
2017-10-26T10:17:26.928Z,6756.00
2017-10-26T10:18:26.902Z,5296.00
2017-10-26T10:19:26.881Z,4504.00
2017-10-26T10:20:26.862Z,5536.00
2017-10-26T10:21:26.831Z,7464.00
2017-10-26T10:22:26.809Z,9084.00
2017-10-26T10:23:26.785Z,9180.00
2017-10-26T10:24:26.751Z,7152.00
2017-10-26T10:25:26.734Z,5668.00
2017-10-26T10:26:26.708Z,5644.00
2017-10-26T10:27:26.683Z,5784.00
2017-10-26T10:28:26.656Z,6332.00
2017-10-26T10:29:26.634Z,11432.00
2017-10-26T10:30:26.615Z,16564.00
2017-10-26T10:31:26.583Z,19328.00
2017-10-26T10:32:26.559Z,21344.00
2017-10-26T10:33:26.534Z,20864.00
2017-10-26T10:34:26.508Z,21312.00
2017-10-26T10:35:26.493Z,23168.00
2017-10-26T10:36:26.459Z,24640.00
2017-10-26T10:37:26.436Z,23424.00
2017-10-26T10:38:26.414Z,23360.00
2017-10-26T10:39:26.387Z,22688.00
2017-10-26T10:40:26.363Z,21504.00
2017-10-26T10:41:26.343Z,21664.00
2017-10-26T10:42:26.314Z,20448.00
2017-10-26T10:43:26.292Z,18848.00
2017-10-26T10:44:26.273Z,17664.00
2017-10-26T10:45:26.244Z,16632.00
2017-10-26T10:46:26.230Z,16464.00
2017-10-26T10:47:26.197Z,16468.00
2017-10-26T10:48:26.183Z,18112.00
2017-10-26T10:49:26.159Z,18944.00
2017-10-26T10:50:26.129Z,19328.00
2017-10-26T10:51:26.110Z,18432.00
2017-10-26T10:52:26.085Z,18752.00
2017-10-26T10:53:26.063Z,20160.00
2017-10-26T10:54:26.044Z,22144.00
2017-10-26T10:55:26.012Z,21536.00
2017-10-26T10:56:26.243Z,19072.00
2017-10-26T10:57:25.966Z,20160.00
2017-10-26T10:58:25.958Z,21312.00
2017-10-26T10:59:25.924Z,20800.00
2017-10-26T11:00:25.895Z,18944.00
2017-10-26T11:01:25.870Z,20224.00
2017-10-26T11:02:25.846Z,20160.00
2017-10-26T11:03:25.826Z,21728.00
2017-10-26T11:04:25.803Z,21344.00
2017-10-26T11:05:25.782Z,21312.00
2017-10-26T11:06:25.764Z,20672.00
2017-10-26T11:07:25.746Z,19552.00
2017-10-26T11:08:25.711Z,20064.00
2017-10-26T11:09:25.696Z,19168.00
2017-10-26T11:10:25.666Z,16560.00
2017-10-26T11:11:25.652Z,16372.00
2017-10-26T11:12:25.628Z,16140.00
2017-10-26T11:13:25.596Z,15644.00
2017-10-26T11:14:25.580Z,18048.00
2017-10-26T11:15:25.557Z,19072.00
2017-10-26T11:16:25.537Z,20928.00
2017-10-26T11:17:25.509Z,20864.00
2017-10-26T11:18:25.493Z,21984.00
2017-10-26T11:19:25.470Z,22240.00
2017-10-26T11:20:25.443Z,20864.00
2017-10-26T11:21:25.423Z,20352.00
2017-10-26T11:22:25.395Z,19008.00
2017-10-26T11:23:25.378Z,20672.00
2017-10-26T11:24:25.354Z,20448.00
2017-10-26T11:25:25.328Z,20704.00
2017-10-26T11:26:25.559Z,19168.00
2017-10-26T11:27:25.288Z,20864.00
2017-10-26T11:28:25.267Z,19392.00
2017-10-26T11:29:25.244Z,22304.00
2017-10-26T11:30:25.217Z,30080.00
2017-10-26T11:31:25.196Z,33888.00
2017-10-26T11:32:25.185Z,31008.00
2017-10-26T11:33:25.157Z,31808.00
2017-10-26T11:34:25.136Z,36864.00
2017-10-26T11:35:25.115Z,31424.00
2017-10-26T11:36:25.089Z,32384.00
2017-10-26T11:37:25.064Z,35712.00
2017-10-26T11:38:25.047Z,35072.00
2017-10-26T11:39:25.027Z,31552.00
2017-10-26T11:40:25.007Z,27744.00
2017-10-26T11:41:24.994Z,33952.00
2017-10-26T11:42:24.967Z,44288.00
2017-10-26T11:43:25.240Z,41984.00
2017-10-26T11:44:24.919Z,34624.00
2017-10-26T11:45:24.899Z,31232.00
2017-10-26T11:46:24.878Z,32256.00
2017-10-26T11:47:24.858Z,30112.00
2017-10-26T11:48:24.839Z,28736.00
2017-10-26T11:49:24.816Z,27040.00
2017-10-26T11:50:24.798Z,25088.00
2017-10-26T11:51:24.774Z,28480.00
2017-10-26T11:52:24.752Z,28608.00
2017-10-26T11:53:24.734Z,32192.00
2017-10-26T11:54:24.717Z,33728.00
2017-10-26T11:55:24.698Z,34144.00
2017-10-26T11:56:24.677Z,35712.00
2017-10-26T11:57:24.657Z,33472.00
2017-10-26T11:58:24.627Z,38336.00
2017-10-26T11:59:24.614Z,45344.00
2017-10-26T12:00:24.591Z,47456.00
2017-10-26T12:01:24.573Z,40192.00
2017-10-26T12:02:24.548Z,37504.00
2017-10-26T12:03:24.537Z,37824.00
2017-10-26T12:04:24.507Z,33024.00
2017-10-26T12:05:24.492Z,35904.00
2017-10-26T12:06:24.473Z,34048.00
2017-10-26T12:07:24.456Z,34784.00
2017-10-26T12:08:24.445Z,34496.00
2017-10-26T12:09:24.415Z,35104.00
2017-10-26T12:10:24.393Z,37184.00
2017-10-26T12:11:24.371Z,37024.00
2017-10-26T12:12:24.356Z,36000.00
2017-10-26T12:13:24.329Z,30688.00
2017-10-26T12:14:24.314Z,29856.00
2017-10-26T12:15:24.298Z,25568.00
2017-10-26T12:16:24.483Z,28320.00
2017-10-26T12:17:24.262Z,24576.00
2017-10-26T12:18:24.537Z,23232.00
2017-10-26T12:19:24.224Z,22784.00
2017-10-26T12:20:24.196Z,22624.00
2017-10-26T12:21:24.183Z,22336.00
2017-10-26T12:22:24.157Z,23424.00
2017-10-26T12:23:24.136Z,23872.00
2017-10-26T12:24:24.119Z,24384.00
2017-10-26T12:25:24.106Z,25152.00
2017-10-26T12:26:24.083Z,25344.00
2017-10-26T12:27:24.062Z,25024.00
2017-10-26T12:28:24.044Z,23936.00
2017-10-26T12:29:24.027Z,22624.00
2017-10-26T12:30:24.001Z,21600.00
2017-10-26T12:31:23.985Z,20704.00
2017-10-26T12:32:23.954Z,20160.00
2017-10-26T12:33:23.938Z,19296.00
2017-10-26T12:34:23.919Z,18784.00
2017-10-26T12:35:23.902Z,18208.00